createdAt,value
2022-10-01T00:01:28.870Z,62.64
2022-10-01T00:03:57.174Z,62.89
2022-10-01T00:06:25.351Z,63.14
2022-10-01T00:08:55.133Z,63.16
2022-10-01T00:11:25.483Z,62.83
2022-10-01T00:13:55.185Z,64.04
2022-10-01T00:16:27.300Z,64.01
2022-10-01T00:18:56.359Z,64.13
2022-10-01T00:21:26.414Z,63.71
2022-10-01T00:23:57.971Z,63.54
2022-10-01T00:26:29.608Z,63.96
2022-10-01T00:29:00.030Z,64.28
2022-10-01T00:31:29.898Z,64.67
2022-10-01T00:34:00.099Z,64.90
2022-10-01T00:36:28.605Z,65.42
2022-10-01T00:39:00.386Z,65.28
2022-10-01T00:41:29.562Z,66.05
2022-10-01T00:44:01.039Z,65.50
2022-10-01T00:46:35.900Z,65.85
2022-10-01T00:49:08.231Z,65.70
2022-10-01T00:51:41.528Z,65.50
2022-10-01T00:54:14.515Z,65.98
2022-10-01T00:56:44.939Z,66.23
2022-10-01T00:59:16.254Z,65.97
2022-10-01T01:01:45.710Z,66.04
2022-10-01T01:04:17.396Z,65.89
2022-10-01T01:06:48.070Z,65.62
2022-10-01T01:09:17.702Z,65.61
2022-10-01T01:11:55.159Z,66.33
2022-10-01T01:14:31.425Z,66.37
2022-10-01T01:17:02.740Z,65.81
2022-10-01T01:19:44.957Z,65.81
2022-10-01T01:22:15.395Z,66.15
2022-10-01T01:24:50.290Z,66.39
2022-10-01T01:27:31.636Z,66.61
2022-10-01T01:30:05.416Z,66.74
2022-10-01T01:32:41.872Z,65.68
2022-10-01T01:35:16.196Z,65.37
2022-10-01T01:37:51.090Z,65.64
2022-10-01T01:40:21.872Z,65.70
2022-10-01T01:42:51.911Z,65.86
2022-10-01T01:45:26.429Z,66.73
2022-10-01T01:47:57.128Z,66.68
2022-10-01T01:50:28.591Z,66.70
2022-10-01T01:52:57.748Z,67.42
2022-10-01T01:55:28.421Z,67.78
2022-10-01T01:57:58.500Z,67.51
2022-10-01T02:00:28.502Z,67.02
2022-10-01T02:02:59.266Z,66.42
2022-10-01T02:05:31.704Z,67.23
2022-10-01T02:08:31.700Z,67.18
2022-10-01T02:11:14.293Z,67.41
2022-10-01T02:13:50.376Z,66.94
2022-10-01T02:16:25.748Z,66.47
2022-10-01T02:19:01.356Z,66.89
2022-10-01T02:21:34.506Z,66.86
2022-10-01T02:24:08.161Z,66.42
2022-10-01T02:26:40.552Z,66.06
2022-10-01T02:29:13.436Z,66.03
2022-10-01T02:31:43.745Z,67.02
2022-10-01T02:34:19.983Z,67.36
2022-10-01T02:36:50.416Z,66.83
2022-10-01T02:39:20.165Z,67.21
2022-10-01T02:41:51.501Z,68.34
2022-10-01T02:44:23.054Z,67.58
2022-10-01T02:46:58.190Z,68.27
2022-10-01T02:49:30.669Z,67.95
2022-10-01T02:52:03.646Z,67.57
2022-10-01T02:54:36.905Z,67.63
2022-10-01T02:57:22.372Z,67.64
2022-10-01T02:59:52.326Z,67.59
2022-10-01T03:02:23.522Z,68.02
2022-10-01T03:04:52.862Z,67.50
2022-10-01T03:07:21.087Z,67.42
2022-10-01T03:09:51.042Z,67.96
2022-10-01T03:12:20.442Z,68.33
2022-10-01T03:14:48.773Z,68.35
2022-10-01T03:17:17.940Z,68.47
2022-10-01T03:19:47.590Z,68.45
2022-10-01T03:22:22.515Z,68.33
2022-10-01T03:24:50.939Z,68.57
2022-10-01T03:27:19.297Z,68.80
2022-10-01T03:29:47.855Z,68.66
2022-10-01T03:32:16.524Z,68.18
2022-10-01T03:34:45.195Z,67.38
2022-10-01T03:37:14.916Z,67.73
2022-10-01T03:39:43.192Z,67.58
2022-10-01T03:42:11.415Z,67.76
2022-10-01T03:44:39.580Z,67.72
2022-10-01T03:47:07.825Z,67.92
2022-10-01T03:49:35.988Z,68.69
2022-10-01T03:52:04.649Z,68.10
2022-10-01T03:54:34.600Z,68.22
2022-10-01T03:57:03.145Z,68.61
2022-10-01T03:59:31.389Z,69.10
2022-10-01T04:01:59.812Z,69.32
2022-10-01T04:04:29.066Z,69.37
2022-10-01T04:06:57.356Z,69.50
2022-10-01T04:09:25.548Z,69.33
2022-10-01T04:11:55.185Z,69.45
2022-10-01T04:14:23.397Z,69.80
2022-10-01T04:16:52.668Z,69.10
2022-10-01T04:19:21.340Z,69.14
2022-10-01T04:21:50.557Z,69.00
2022-10-01T04:24:18.740Z,69.08
2022-10-01T04:26:47.026Z,69.48
2022-10-01T04:29:16.800Z,69.40
2022-10-01T04:31:45.123Z,69.50
2022-10-01T04:34:13.422Z,69.80
2022-10-01T04:36:41.641Z,69.63
2022-10-01T04:39:09.850Z,69.45
2022-10-01T04:41:38.687Z,69.36
2022-10-01T04:44:07.470Z,70.34
2022-10-01T04:46:37.100Z,70.28
2022-10-01T04:49:06.373Z,69.52
2022-10-01T04:51:34.858Z,69.52
2022-10-01T04:54:03.567Z,69.74
2022-10-01T04:56:31.800Z,69.51
2022-10-01T04:59:00.182Z,69.42
2022-10-01T05:01:28.403Z,69.92
2022-10-01T05:03:58.063Z,70.21
2022-10-01T05:06:26.315Z,69.95
2022-10-01T05:08:54.613Z,70.10
2022-10-01T05:11:22.883Z,69.82
2022-10-01T05:13:51.021Z,69.57
2022-10-01T05:16:19.541Z,69.64
2022-10-01T05:18:47.799Z,69.47
2022-10-01T05:21:17.408Z,70.04
2022-10-01T05:23:45.672Z,70.18
2022-10-01T05:26:13.864Z,70.21
2022-10-01T05:28:44.464Z,69.83
2022-10-01T05:31:13.489Z,70.21
2022-10-01T05:33:42.323Z,70.56
2022-10-01T05:36:10.608Z,70.14
2022-10-01T05:38:40.236Z,70.39
2022-10-01T05:41:09.747Z,69.88
2022-10-01T05:43:38.976Z,70.33
2022-10-01T05:46:07.530Z,70.76
2022-10-01T05:48:37.002Z,70.14
2022-10-01T05:51:06.757Z,70.51
2022-10-01T05:53:35.089Z,69.95
2022-10-01T05:56:04.799Z,70.74
2022-10-01T05:58:33.022Z,71.20
2022-10-01T06:01:01.258Z,71.14
2022-10-01T06:03:29.856Z,70.82
2022-10-01T06:05:58.098Z,71.14
2022-10-01T06:08:28.743Z,70.73
2022-10-01T06:11:00.914Z,70.45
2022-10-01T06:13:30.647Z,71.34
2022-10-01T06:15:59.221Z,70.99
2022-10-01T06:18:27.680Z,71.19
2022-10-01T06:20:55.983Z,70.83
2022-10-01T06:23:24.337Z,70.72
2022-10-01T06:25:52.536Z,70.14
2022-10-01T06:28:21.979Z,70.58
2022-10-01T06:30:51.860Z,70.14
2022-10-01T06:33:20.088Z,70.06
2022-10-01T06:35:49.888Z,70.20
2022-10-01T06:38:20.078Z,69.65
2022-10-01T06:40:53.059Z,69.80
2022-10-01T06:43:21.742Z,70.00
2022-10-01T06:45:51.593Z,69.72
2022-10-01T06:48:21.128Z,70.04
2022-10-01T06:50:52.483Z,69.74
2022-10-01T06:53:19.942Z,70.03
2022-10-01T06:55:49.949Z,69.67
2022-10-01T06:58:20.346Z,70.08
2022-10-01T07:00:49.206Z,70.05
2022-10-01T07:03:21.374Z,69.99
2022-10-01T07:05:51.657Z,70.69
2022-10-01T07:08:21.002Z,70.54
2022-10-01T07:10:50.196Z,70.85
2022-10-01T07:13:20.474Z,71.21
2022-10-01T07:15:48.796Z,71.16
2022-10-01T07:18:18.369Z,71.51
2022-10-01T07:20:46.545Z,71.36
2022-10-01T07:23:16.382Z,71.33
2022-10-01T07:25:45.725Z,70.90
2022-10-01T07:28:18.312Z,70.96
2022-10-01T07:30:48.740Z,70.80
2022-10-01T07:33:20.908Z,70.35
2022-10-01T07:35:49.453Z,70.29
2022-10-01T07:38:17.659Z,69.98
2022-10-01T07:40:45.914Z,70.38
2022-10-01T07:43:14.804Z,69.85
2022-10-01T07:45:43.179Z,69.87
2022-10-01T07:48:11.443Z,70.21
2022-10-01T07:50:41.053Z,69.97
2022-10-01T07:53:11.280Z,69.80
2022-10-01T07:55:39.505Z,69.85
2022-10-01T07:58:07.720Z,69.73
2022-10-01T08:00:36.537Z,69.57
2022-10-01T08:03:05.160Z,69.64
2022-10-01T08:05:35.441Z,69.58
2022-10-01T08:08:08.711Z,69.92
2022-10-01T08:10:38.929Z,69.80
2022-10-01T08:13:14.918Z,69.83
2022-10-01T08:19:24.652Z,70.19
2022-10-01T08:21:52.969Z,70.02
2022-10-01T08:24:22.665Z,69.94
2022-10-01T08:26:56.014Z,69.68
2022-10-01T08:29:24.321Z,69.65
2022-10-01T08:31:52.551Z,69.24
2022-10-01T08:34:21.882Z,69.20
2022-10-01T08:36:52.318Z,68.82
2022-10-01T08:39:20.619Z,68.77
2022-10-01T08:41:56.567Z,68.65
2022-10-01T08:44:29.962Z,68.11
2022-10-01T08:47:05.131Z,67.50
2022-10-01T08:49:40.467Z,67.88
2022-10-01T08:52:16.898Z,68.84
2022-10-01T08:54:49.518Z,68.03
2022-10-01T08:57:24.492Z,67.82
2022-10-01T09:07:46.093Z,65.33
2022-10-01T09:10:42.283Z,65.33
2022-10-01T09:13:34.737Z,64.98
2022-10-01T09:16:13.822Z,65.29
2022-10-01T09:18:53.700Z,65.17
2022-10-01T09:21:29.306Z,64.98
2022-10-01T09:24:05.159Z,64.67
2022-10-01T09:26:34.209Z,64.42
2022-10-01T09:29:07.007Z,65.25
2022-10-01T09:31:42.265Z,64.51
2022-10-01T09:34:14.787Z,64.95
2022-10-01T09:36:58.225Z,65.02
2022-10-01T09:39:33.025Z,64.68
2022-10-01T09:42:01.620Z,64.21
2022-10-01T09:44:34.061Z,63.91
2022-10-01T09:47:02.333Z,63.04
2022-10-01T09:49:33.966Z,62.37
2022-10-01T09:52:07.402Z,61.61
2022-10-01T09:54:43.208Z,60.98
2022-10-01T09:57:16.055Z,60.41
2022-10-01T09:59:49.970Z,60.19
2022-10-01T10:02:24.191Z,59.15
2022-10-01T10:05:00.894Z,59.34
2022-10-01T10:07:32.502Z,58.84
2022-10-01T10:10:10.464Z,58.02
2022-10-01T10:12:38.875Z,58.25
2022-10-01T10:15:11.573Z,57.72
2022-10-01T10:17:44.294Z,57.20
2022-10-01T10:20:25.311Z,55.78
2022-10-01T10:22:53.968Z,56.77
2022-10-01T10:25:24.797Z,57.32
2022-10-01T10:27:59.773Z,57.73
2022-10-01T10:30:30.227Z,57.99
2022-10-01T10:33:05.728Z,57.80
2022-10-01T10:35:34.061Z,57.75
2022-10-01T10:38:02.700Z,55.65
2022-10-01T10:40:41.078Z,56.33
2022-10-01T10:43:20.902Z,57.00
2022-10-01T10:45:55.248Z,55.65
2022-10-01T10:48:27.499Z,54.48
2022-10-01T10:51:00.790Z,53.50
2022-10-01T10:53:33.909Z,53.48
2022-10-01T10:56:03.911Z,52.57
2022-10-01T10:58:34.158Z,51.47
2022-10-01T11:01:10.449Z,51.29
2022-10-01T11:03:43.623Z,50.58
2022-10-01T11:06:14.899Z,50.06
2022-10-01T11:08:44.270Z,50.17
2022-10-01T11:11:27.784Z,50.28
2022-10-01T11:18:48.679Z,51.67
2022-10-01T11:21:40.459Z,51.96
2022-10-01T11:24:26.637Z,51.98
2022-10-01T11:26:59.873Z,51.37
2022-10-01T11:29:40.808Z,51.23
2022-10-01T11:32:19.764Z,51.33
2022-10-01T11:35:03.794Z,51.48
2022-10-01T11:37:45.360Z,51.24
2022-10-01T11:40:19.217Z,51.20
2022-10-01T11:42:49.878Z,50.84
2022-10-01T11:45:23.718Z,50.75
2022-10-01T11:47:57.785Z,51.01
2022-10-01T11:50:30.295Z,51.42
2022-10-01T11:53:02.646Z,51.83
2022-10-01T11:55:56.585Z,51.09
2022-10-01T11:58:50.960Z,50.40
2022-10-01T12:01:27.004Z,51.08
2022-10-01T12:04:06.204Z,51.15
2022-10-01T12:06:41.980Z,51.20
2022-10-01T12:09:21.438Z,51.58
2022-10-01T12:11:55.987Z,51.81
2022-10-01T12:14:31.558Z,51.97
2022-10-01T12:17:10.695Z,51.92
2022-10-01T12:19:45.346Z,52.88
2022-10-01T12:22:24.719Z,52.97
2022-10-01T12:24:54.391Z,53.12
2022-10-01T12:27:44.155Z,52.19
2022-10-01T12:30:17.405Z,51.82
2022-10-01T12:32:58.992Z,52.04
2022-10-01T12:35:49.849Z,51.85
2022-10-01T12:38:36.391Z,52.10
2022-10-01T12:41:15.753Z,51.84
2022-10-01T12:44:15.691Z,51.62
2022-10-01T12:46:53.342Z,51.90
2022-10-01T12:49:29.287Z,52.06
2022-10-01T12:52:02.907Z,50.96
2022-10-01T12:54:53.456Z,50.77
2022-10-01T12:57:37.948Z,50.32
2022-10-01T13:00:12.494Z,49.91
2022-10-01T13:03:13.072Z,49.61
2022-10-01T13:05:52.291Z,49.99
2022-10-01T13:08:39.519Z,50.32
2022-10-01T13:11:24.969Z,50.06
2022-10-01T13:13:54.943Z,50.38
2022-10-01T13:16:29.355Z,49.55
2022-10-01T13:19:04.527Z,48.77
2022-10-01T13:21:52.890Z,48.95
2022-10-01T13:24:30.148Z,48.80
2022-10-01T13:27:06.879Z,48.54
2022-10-01T13:29:48.930Z,48.58
2022-10-01T13:32:33.666Z,48.84
2022-10-01T13:35:22.024Z,48.87
2022-10-01T13:37:50.347Z,48.82
2022-10-01T13:40:28.001Z,48.00
2022-10-01T13:43:00.737Z,48.05
2022-10-01T13:45:31.837Z,48.22
2022-10-01T13:48:09.445Z,48.40
2022-10-01T13:50:39.946Z,48.60
2022-10-01T13:53:15.325Z,48.79
2022-10-01T13:55:46.266Z,48.85
2022-10-01T13:58:37.032Z,49.36
2022-10-01T14:01:13.873Z,48.98
2022-10-01T14:03:54.196Z,48.94
2022-10-01T14:06:28.144Z,49.37
2022-10-01T14:09:05.800Z,50.00
2022-10-01T14:11:54.499Z,50.19
2022-10-01T14:14:47.976Z,49.82
2022-10-01T14:17:19.986Z,49.82
2022-10-01T14:19:50.902Z,50.26
2022-10-01T14:22:30.069Z,50.52
2022-10-01T14:25:27.846Z,50.43
2022-10-01T14:28:14.291Z,50.79
2022-10-01T14:30:54.268Z,50.23
2022-10-01T14:33:51.366Z,50.19
2022-10-01T14:36:31.944Z,50.56
2022-10-01T14:39:15.081Z,50.21
2022-10-01T14:41:44.217Z,50.62
2022-10-01T14:44:22.182Z,50.92
2022-10-01T14:46:52.836Z,50.93
2022-10-01T14:49:23.117Z,50.94
2022-10-01T14:51:54.468Z,50.99
2022-10-01T14:54:24.192Z,50.53
2022-10-01T14:56:53.579Z,50.65
2022-10-01T14:59:30.907Z,50.84
2022-10-01T15:02:02.918Z,50.32
2022-10-01T15:04:31.564Z,50.39
2022-10-01T15:07:14.339Z,50.90
2022-10-01T15:09:42.727Z,50.82
2022-10-01T15:12:12.979Z,50.64
2022-10-01T15:14:42.550Z,51.06
2022-10-01T15:17:19.429Z,50.77
2022-10-01T15:19:53.008Z,50.34
2022-10-01T15:22:25.301Z,50.71
2022-10-01T15:24:57.142Z,50.51
2022-10-01T15:27:26.194Z,50.15
2022-10-01T15:29:57.310Z,49.95
2022-10-01T15:32:28.942Z,50.15
2022-10-01T15:35:01.240Z,50.07
2022-10-01T15:37:33.169Z,50.28
2022-10-01T15:40:02.719Z,50.34
2022-10-01T15:42:33.254Z,50.09
2022-10-01T15:45:23.447Z,50.01
2022-10-01T15:47:57.052Z,50.49
2022-10-01T15:50:27.658Z,50.99
2022-10-01T15:53:03.888Z,50.87
2022-10-01T15:55:34.837Z,51.08
2022-10-01T15:58:15.914Z,51.38
2022-10-01T16:00:57.800Z,51.48
2022-10-01T16:03:30.119Z,51.57
2022-10-01T16:06:01.875Z,51.90
2022-10-01T16:08:35.350Z,52.37
2022-10-01T16:11:17.913Z,52.34
2022-10-01T16:13:49.020Z,52.63
2022-10-01T16:16:24.348Z,52.32
2022-10-01T16:18:58.065Z,52.15
2022-10-01T16:21:27.098Z,52.12
2022-10-01T16:23:56.367Z,52.00
2022-10-01T16:26:38.303Z,52.15
2022-10-01T16:29:30.806Z,50.66
2022-10-01T16:32:01.745Z,51.56
2022-10-01T16:34:31.442Z,51.73
2022-10-01T16:36:59.693Z,51.91
2022-10-01T16:39:28.051Z,52.27
2022-10-01T16:42:19.131Z,52.13
2022-10-01T16:44:44.816Z,52.44
2022-10-01T16:47:13.999Z,52.46
2022-10-01T16:49:43.633Z,52.71
2022-10-01T16:52:16.748Z,52.74
2022-10-01T16:54:47.540Z,52.84
2022-10-01T16:57:17.798Z,52.82
2022-10-01T16:59:46.144Z,53.05
2022-10-01T17:02:15.763Z,53.07
2022-10-01T17:04:45.466Z,53.29
2022-10-01T17:07:13.771Z,53.40
2022-10-01T17:09:42.141Z,53.54
2022-10-01T17:12:11.070Z,53.67
2022-10-01T17:14:39.349Z,53.87
2022-10-01T17:17:07.685Z,53.97
2022-10-01T17:19:35.976Z,53.95
2022-10-01T17:22:05.660Z,54.28
2022-10-01T17:24:33.871Z,54.58
2022-10-01T17:27:02.366Z,54.55
2022-10-01T17:29:32.355Z,54.63
2022-10-01T17:32:00.655Z,54.86
2022-10-01T17:34:29.056Z,55.28
2022-10-01T17:36:59.911Z,55.31
2022-10-01T17:39:30.759Z,55.64
2022-10-01T17:42:00.120Z,55.96
2022-10-01T17:44:28.346Z,56.02
2022-10-01T17:46:57.308Z,56.22
2022-10-01T17:49:25.773Z,56.26
2022-10-01T17:51:54.568Z,56.33
2022-10-01T17:54:23.337Z,56.52
2022-10-01T17:56:55.050Z,56.44
2022-10-01T17:59:23.461Z,56.58
2022-10-01T18:01:53.350Z,56.57
2022-10-01T18:04:21.623Z,56.80
2022-10-01T18:06:52.296Z,56.80
2022-10-01T18:09:20.723Z,56.81
2022-10-01T18:11:50.060Z,57.06
2022-10-01T18:14:20.753Z,57.01
2022-10-01T18:16:49.170Z,57.32
2022-10-01T18:22:13.596Z,57.66
2022-10-01T18:24:42.528Z,57.75
2022-10-01T18:27:10.823Z,57.82
2022-10-01T18:29:40.765Z,58.18
2022-10-01T18:32:17.638Z,58.33
2022-10-01T18:34:51.096Z,58.77
2022-10-01T18:37:30.106Z,59.07
2022-10-01T18:40:05.997Z,59.25
2022-10-01T18:42:46.274Z,59.37
2022-10-01T18:45:31.431Z,59.52
2022-10-01T18:48:16.714Z,59.54
2022-10-01T18:50:51.616Z,59.68
2022-10-01T18:53:38.055Z,59.79
2022-10-01T18:56:24.720Z,59.61
2022-10-01T18:59:26.062Z,59.66
2022-10-01T19:02:12.610Z,59.73
2022-10-01T19:04:56.063Z,59.74
2022-10-01T19:07:37.417Z,59.66
2022-10-01T19:10:17.174Z,59.94
2022-10-01T19:12:56.702Z,59.84
2022-10-01T19:15:37.951Z,59.99
2022-10-01T19:18:22.282Z,59.73
2022-10-01T19:20:59.550Z,59.74
2022-10-01T19:23:43.051Z,59.81
2022-10-01T19:26:17.990Z,59.94
2022-10-01T19:28:59.992Z,60.05
2022-10-01T19:31:39.160Z,59.82
2022-10-01T19:34:14.023Z,60.05
2022-10-01T19:36:49.849Z,57.79
2022-10-01T19:39:23.300Z,59.06
2022-10-01T19:41:58.160Z,59.50
2022-10-01T19:44:33.008Z,59.77
2022-10-01T19:47:15.876Z,59.81
2022-10-01T19:49:50.209Z,59.95
2022-10-01T19:52:19.233Z,60.06
2022-10-01T19:54:54.232Z,60.13
2022-10-01T19:57:24.229Z,60.50
2022-10-01T19:59:55.482Z,60.62
2022-10-01T20:02:33.896Z,60.59
2022-10-01T20:05:07.123Z,60.91
2022-10-01T20:07:45.386Z,60.97
2022-10-01T20:10:21.441Z,61.18
2022-10-01T20:13:03.568Z,61.18
2022-10-01T20:15:41.112Z,61.31
2022-10-01T20:18:23.401Z,61.56
2022-10-01T20:21:11.811Z,61.68
2022-10-01T20:23:47.870Z,61.54
2022-10-01T20:26:26.968Z,61.43
2022-10-01T20:29:11.192Z,61.51
2022-10-01T20:31:48.314Z,61.34
2022-10-01T20:34:27.603Z,61.43
2022-10-01T20:37:12.435Z,61.32
2022-10-01T20:39:44.838Z,61.42
2022-10-01T20:42:20.765Z,61.21
2022-10-01T20:44:49.451Z,61.11
2022-10-01T20:47:24.833Z,60.64
2022-10-01T20:50:02.692Z,60.81
2022-10-01T20:52:42.917Z,60.41
2022-10-01T20:55:19.308Z,60.36
2022-10-01T20:57:52.105Z,60.40
2022-10-01T21:00:23.613Z,60.20
2022-10-01T21:02:57.762Z,60.25
2022-10-01T21:05:29.944Z,60.37
2022-10-01T21:08:03.373Z,60.38
2022-10-01T21:10:39.059Z,60.50
2022-10-01T21:13:14.777Z,60.48
2022-10-01T21:15:55.117Z,60.68
2022-10-01T21:18:33.345Z,60.87
2022-10-01T21:21:13.223Z,60.76
2022-10-01T21:23:57.430Z,60.86
2022-10-01T21:26:40.563Z,60.70
2022-10-01T21:29:26.399Z,60.95
2022-10-01T21:32:05.164Z,60.90
2022-10-01T21:34:48.361Z,60.99
2022-10-01T21:37:24.375Z,60.99
2022-10-01T21:40:05.044Z,60.85
2022-10-01T21:42:47.252Z,61.04
2022-10-01T21:45:27.428Z,60.89
2022-10-01T21:48:11.375Z,61.03
2022-10-01T21:50:51.158Z,60.81
2022-10-01T21:53:36.840Z,61.05
2022-10-01T21:56:22.937Z,61.18
2022-10-01T21:59:05.485Z,61.50
2022-10-01T22:02:03.430Z,61.44
2022-10-01T22:04:40.461Z,61.56
2022-10-01T22:07:16.031Z,61.47
2022-10-01T22:09:57.561Z,61.51
2022-10-01T22:12:29.887Z,61.83
2022-10-01T22:15:00.913Z,61.73
2022-10-01T22:17:32.850Z,61.83
2022-10-01T22:20:05.250Z,61.79
2022-10-01T22:22:38.727Z,61.90
2022-10-01T22:25:09.838Z,61.65
2022-10-01T22:27:46.852Z,61.66
2022-10-01T22:30:18.917Z,61.75
2022-10-01T22:32:52.246Z,61.94
2022-10-01T22:35:25.779Z,61.96
2022-10-01T22:37:59.962Z,62.31
2022-10-01T22:40:35.751Z,62.42
2022-10-01T22:43:11.049Z,62.53
2022-10-01T22:45:55.580Z,62.73
2022-10-01T22:48:37.207Z,62.64
2022-10-01T22:51:17.398Z,63.03
2022-10-01T22:54:01.607Z,62.86
2022-10-01T22:56:38.895Z,63.01
2022-10-01T22:59:19.464Z,63.37
2022-10-01T23:01:54.421Z,63.29
2022-10-01T23:04:35.992Z,63.28
2022-10-01T23:07:14.825Z,63.51
2022-10-01T23:09:48.455Z,63.86
2022-10-01T23:12:25.075Z,63.79
2022-10-01T23:15:07.737Z,63.92
2022-10-01T23:17:43.703Z,64.56
2022-10-01T23:20:25.066Z,64.72
2022-10-01T23:23:18.822Z,64.73
2022-10-01T23:25:59.861Z,64.86
2022-10-01T23:28:41.846Z,64.83
2022-10-01T23:31:20.341Z,64.98
2022-10-01T23:34:00.329Z,65.25
2022-10-01T23:36:37.249Z,65.86
2022-10-01T23:39:22.577Z,66.11
2022-10-01T23:41:56.232Z,66.60
2022-10-01T23:44:34.887Z,66.33
2022-10-01T23:47:13.282Z,66.14
2022-10-01T23:49:45.750Z,66.37
2022-10-01T23:52:20.180Z,66.17
2022-10-01T23:54:52.976Z,66.11
2022-10-01T23:57:25.926Z,66.31
